Buffalo Springs, North Dakota
Current Conditions -  °F | °C
As of 11:53 PM on Friday 28 Nov 2014 (Local Time) from KHEI Reporting Station
Clear Clear  
Wind Chill: 37°   Ceiling: Unl
Heat Index: 37°   Visibility: 10mi
Dew Point: 28°   Wind: 3mph
Humidity: 70%   Direction: 230°SW
Pressure: 29.38"   Gusts: NA
Location:  46.1126°N, 103.431°W
Report Text: KHEI 290653Z AUTO 23003KT 10SM CLR 03/M02 A2938 RMK AO2 SLP963 T00281022 400721078
Loading
Personal Weather Stations






























Interactive Weather Map New forecast layout! Learn more

10-Day Weather Forecast

Advertisements
Track Severe Weather on mobile